sensor_id;sensor_type;location;lat;lon;timestamp;temperature;humidity
8824;DHT22;4448;50.904;4.694;2023-06-10T00:02:05;23.20;99.90
8824;DHT22;4448;50.904;4.694;2023-06-10T00:04:31;23.20;99.90
8824;DHT22;4448;50.904;4.694;2023-06-10T00:06:57;23.10;99.90
8824;DHT22;4448;50.904;4.694;2023-06-10T00:09:22;23.10;99.90
8824;DHT22;4448;50.904;4.694;2023-06-10T00:11:48;23.10;99.90
8824;DHT22;4448;50.904;4.694;2023-06-10T00:14:14;23.10;99.90
8824;DHT22;4448;50.904;4.694;2023-06-10T00:16:39;23.00;99.90
8824;DHT22;4448;50.904;4.694;2023-06-10T00:19:05;23.10;99.90
8824;DHT22;4448;50.904;4.694;2023-06-10T00:21:33;23.10;99.90
8824;DHT22;4448;50.904;4.694;2023-06-10T00:24:06;23.00;99.90
8824;DHT22;4448;50.904;4.694;2023-06-10T00:26:40;23.00;99.90
8824;DHT22;4448;50.904;4.694;2023-06-10T00:29:06;23.00;99.90
8824;DHT22;4448;50.904;4.694;2023-06-10T00:31:34;23.00;99.90
8824;DHT22;4448;50.904;4.694;2023-06-10T00:34:00;22.90;99.90
8824;DHT22;4448;50.904;4.694;2023-06-10T00:36:25;22.90;99.90
8824;DHT22;4448;50.904;4.694;2023-06-10T00:38:51;22.90;99.90
8824;DHT22;4448;50.904;4.694;2023-06-10T00:41:16;22.90;99.90
8824;DHT22;4448;50.904;4.694;2023-06-10T00:43:42;22.90;99.90
8824;DHT22;4448;50.904;4.694;2023-06-10T00:46:10;22.80;99.90
8824;DHT22;4448;50.904;4.694;2023-06-10T00:48:37;22.80;99.90
8824;DHT22;4448;50.904;4.694;2023-06-10T00:51:05;22.80;99.90
8824;DHT22;4448;50.904;4.694;2023-06-10T00:53:32;22.80;99.90
8824;DHT22;4448;50.904;4.694;2023-06-10T00:55:58;22.80;99.90
8824;DHT22;4448;50.904;4.694;2023-06-10T00:58:24;22.80;99.90
8824;DHT22;4448;50.904;4.694;2023-06-10T01:00:51;22.80;99.90
8824;DHT22;4448;50.904;4.694;2023-06-10T01:03:17;22.70;99.90
8824;DHT22;4448;50.904;4.694;2023-06-10T01:05:45;22.70;99.90
8824;DHT22;4448;50.904;4.694;2023-06-10T01:10:57;22.60;99.90
8824;DHT22;4448;50.904;4.694;2023-06-10T01:13:25;22.60;99.90
8824;DHT22;4448;50.904;4.694;2023-06-10T01:15:55;22.60;99.90
8824;DHT22;4448;50.904;4.694;2023-06-10T01:18:22;22.60;99.90
8824;DHT22;4448;50.904;4.694;2023-06-10T01:20:47;22.50;99.90
8824;DHT22;4448;50.904;4.694;2023-06-10T01:23:14;22.50;99.90
8824;DHT22;4448;50.904;4.694;2023-06-10T01:25:52;22.50;99.90
8824;DHT22;4448;50.904;4.694;2023-06-10T01:28:52;22.40;99.90
8824;DHT22;4448;50.904;4.694;2023-06-10T01:31:56;22.40;99.90
8824;DHT22;4448;50.904;4.694;2023-06-10T01:34:24;22.30;99.90
8824;DHT22;4448;50.904;4.694;2023-06-10T01:36:50;22.30;99.90
8824;DHT22;4448;50.904;4.694;2023-06-10T01:39:17;22.30;99.90
8824;DHT22;4448;50.904;4.694;2023-06-10T01:41:44;22.20;99.90
8824;DHT22;4448;50.904;4.694;2023-06-10T01:44:10;22.20;99.90
8824;DHT22;4448;50.904;4.694;2023-06-10T01:46:36;22.10;99.90
8824;DHT22;4448;50.904;4.694;2023-06-10T01:49:02;22.10;99.90
8824;DHT22;4448;50.904;4.694;2023-06-10T01:51:27;22.10;99.90
8824;DHT22;4448;50.904;4.694;2023-06-10T01:53:53;22.10;99.90
8824;DHT22;4448;50.904;4.694;2023-06-10T01:56:19;22.00;99.90
8824;DHT22;4448;50.904;4.694;2023-06-10T01:58:46;22.00;99.90
8824;DHT22;4448;50.904;4.694;2023-06-10T02:01:12;22.00;99.90
8824;DHT22;4448;50.904;4.694;2023-06-10T02:03:37;22.00;99.90
8824;DHT22;4448;50.904;4.694;2023-06-10T02:06:03;21.90;99.90
8824;DHT22;4448;50.904;4.694;2023-06-10T02:08:29;21.90;99.90
8824;DHT22;4448;50.904;4.694;2023-06-10T02:10:55;21.90;99.90
8824;DHT22;4448;50.904;4.694;2023-06-10T02:13:20;21.90;99.90
8824;DHT22;4448;50.904;4.694;2023-06-10T02:15:46;21.80;99.90
8824;DHT22;4448;50.904;4.694;2023-06-10T02:18:11;21.80;99.90
8824;DHT22;4448;50.904;4.694;2023-06-10T02:20:38;21.80;99.90
8824;DHT22;4448;50.904;4.694;2023-06-10T02:23:04;21.70;99.90
8824;DHT22;4448;50.904;4.694;2023-06-10T02:25:30;21.70;99.90
8824;DHT22;4448;50.904;4.694;2023-06-10T02:27:55;21.70;99.90
8824;DHT22;4448;50.904;4.694;2023-06-10T02:30:21;21.70;99.90
8824;DHT22;4448;50.904;4.694;2023-06-10T02:32:47;21.70;99.90
8824;DHT22;4448;50.904;4.694;2023-06-10T02:35:16;21.60;99.90
8824;DHT22;4448;50.904;4.694;2023-06-10T02:37:43;21.60;99.90
8824;DHT22;4448;50.904;4.694;2023-06-10T02:40:09;21.60;99.90
8824;DHT22;4448;50.904;4.694;2023-06-10T02:42:36;21.60;99.90
8824;DHT22;4448;50.904;4.694;2023-06-10T02:45:02;21.50;99.90
8824;DHT22;4448;50.904;4.694;2023-06-10T02:47:27;21.50;99.90
8824;DHT22;4448;50.904;4.694;2023-06-10T02:49:53;21.50;99.90
8824;DHT22;4448;50.904;4.694;2023-06-10T02:52:18;21.50;99.90
8824;DHT22;4448;50.904;4.694;2023-06-10T02:54:45;21.40;99.90
8824;DHT22;4448;50.904;4.694;2023-06-10T02:57:11;21.40;99.90
8824;DHT22;4448;50.904;4.694;2023-06-10T02:59:37;21.40;99.90
8824;DHT22;4448;50.904;4.694;2023-06-10T03:02:02;21.40;99.90
8824;DHT22;4448;50.904;4.694;2023-06-10T03:04:28;21.40;99.90
8824;DHT22;4448;50.904;4.694;2023-06-10T03:06:54;21.40;99.90
8824;DHT22;4448;50.904;4.694;2023-06-10T03:09:22;21.40;99.90
8824;DHT22;4448;50.904;4.694;2023-06-10T03:11:47;21.40;99.90
8824;DHT22;4448;50.904;4.694;2023-06-10T03:14:13;21.40;99.90
8824;DHT22;4448;50.904;4.694;2023-06-10T03:16:39;21.40;99.90
8824;DHT22;4448;50.904;4.694;2023-06-10T03:19:08;21.40;99.90
8824;DHT22;4448;50.904;4.694;2023-06-10T03:21:37;21.40;99.90
8824;DHT22;4448;50.904;4.694;2023-06-10T03:24:03;21.40;99.90
8824;DHT22;4448;50.904;4.694;2023-06-10T03:26:29;21.40;99.90
8824;DHT22;4448;50.904;4.694;2023-06-10T03:28:54;21.40;99.90
8824;DHT22;4448;50.904;4.694;2023-06-10T03:31:20;21.40;99.90
8824;DHT22;4448;50.904;4.694;2023-06-10T03:33:46;21.40;99.90
8824;DHT22;4448;50.904;4.694;2023-06-10T03:36:11;21.40;99.90
8824;DHT22;4448;50.904;4.694;2023-06-10T03:38:37;21.40;99.90
8824;DHT22;4448;50.904;4.694;2023-06-10T03:41:03;21.30;99.90
8824;DHT22;4448;50.904;4.694;2023-06-10T03:43:29;21.30;99.90
8824;DHT22;4448;50.904;4.694;2023-06-10T03:45:56;21.30;99.90
8824;DHT22;4448;50.904;4.694;2023-06-10T03:48:22;21.30;99.90
8824;DHT22;4448;50.904;4.694;2023-06-10T03:50:48;21.30;99.90
8824;DHT22;4448;50.904;4.694;2023-06-10T03:53:16;21.30;99.90
8824;DHT22;4448;50.904;4.694;2023-06-10T03:55:42;21.20;99.90
8824;DHT22;4448;50.904;4.694;2023-06-10T03:58:07;21.20;99.90
8824;DHT22;4448;50.904;4.694;2023-06-10T04:00:33;21.20;99.90
8824;DHT22;4448;50.904;4.694;2023-06-10T04:03:10;21.20;99.90
8824;DHT22;4448;50.904;4.694;2023-06-10T04:05:40;21.20;99.90
8824;DHT22;4448;50.904;4.694;2023-06-10T04:08:05;21.20;99.90
8824;DHT22;4448;50.904;4.694;2023-06-10T04:10:32;21.20;99.90
8824;DHT22;4448;50.904;4.694;2023-06-10T04:12:58;21.20;99.90
8824;DHT22;4448;50.904;4.694;2023-06-10T04:15:24;21.10;99.90
8824;DHT22;4448;50.904;4.694;2023-06-10T04:17:49;21.10;99.90
8824;DHT22;4448;50.904;4.694;2023-06-10T04:20:15;21.10;99.90
8824;DHT22;4448;50.904;4.694;2023-06-10T04:22:41;21.10;99.90
8824;DHT22;4448;50.904;4.694;2023-06-10T04:25:08;21.10;99.90
8824;DHT22;4448;50.904;4.694;2023-06-10T04:27:34;21.10;99.90
8824;DHT22;4448;50.904;4.694;2023-06-10T04:30:00;21.10;99.90
8824;DHT22;4448;50.904;4.694;2023-06-10T04:32:25;21.10;99.90
8824;DHT22;4448;50.904;4.694;2023-06-10T04:34:51;21.10;99.90
8824;DHT22;4448;50.904;4.694;2023-06-10T04:37:18;21.10;99.90
8824;DHT22;4448;50.904;4.694;2023-06-10T04:39:45;21.10;99.90
8824;DHT22;4448;50.904;4.694;2023-06-10T04:42:11;21.10;99.90
8824;DHT22;4448;50.904;4.694;2023-06-10T04:44:36;21.10;99.90
8824;DHT22;4448;50.904;4.694;2023-06-10T04:47:02;21.10;99.90
8824;DHT22;4448;50.904;4.694;2023-06-10T04:49:28;21.10;99.90
8824;DHT22;4448;50.904;4.694;2023-06-10T04:51:55;21.10;99.90
8824;DHT22;4448;50.904;4.694;2023-06-10T04:54:20;21.10;99.90
8824;DHT22;4448;50.904;4.694;2023-06-10T04:56:46;21.10;99.90
8824;DHT22;4448;50.904;4.694;2023-06-10T04:59:12;21.10;99.90
8824;DHT22;4448;50.904;4.694;2023-06-10T05:01:39;21.20;99.90
8824;DHT22;4448;50.904;4.694;2023-06-10T05:04:05;21.20;99.90
8824;DHT22;4448;50.904;4.694;2023-06-10T05:06:31;21.20;99.90
8824;DHT22;4448;50.904;4.694;2023-06-10T05:08:56;21.20;99.90
8824;DHT22;4448;50.904;4.694;2023-06-10T05:11:22;21.20;99.90
8824;DHT22;4448;50.904;4.694;2023-06-10T05:13:47;21.20;99.90
8824;DHT22;4448;50.904;4.694;2023-06-10T05:16:14;21.20;99.90
8824;DHT22;4448;50.904;4.694;2023-06-10T05:18:40;21.20;99.90
8824;DHT22;4448;50.904;4.694;2023-06-10T05:21:06;21.20;99.90
8824;DHT22;4448;50.904;4.694;2023-06-10T05:23:32;21.20;99.90
8824;DHT22;4448;50.904;4.694;2023-06-10T05:25:58;21.30;99.90
8824;DHT22;4448;50.904;4.694;2023-06-10T05:28:25;21.20;99.90
8824;DHT22;4448;50.904;4.694;2023-06-10T05:30:51;21.30;99.90
8824;DHT22;4448;50.904;4.694;2023-06-10T05:33:17;21.30;99.90
8824;DHT22;4448;50.904;4.694;2023-06-10T05:35:42;21.30;99.90
8824;DHT22;4448;50.904;4.694;2023-06-10T05:38:08;21.30;99.90
8824;DHT22;4448;50.904;4.694;2023-06-10T05:40:34;21.30;99.90
8824;DHT22;4448;50.904;4.694;2023-06-10T05:42:59;21.40;99.90
8824;DHT22;4448;50.904;4.694;2023-06-10T05:45:25;21.40;99.90
8824;DHT22;4448;50.904;4.694;2023-06-10T05:47:50;21.40;99.90
8824;DHT22;4448;50.904;4.694;2023-06-10T05:50:17;21.40;99.90
8824;DHT22;4448;50.904;4.694;2023-06-10T05:52:42;21.50;99.90
8824;DHT22;4448;50.904;4.694;2023-06-10T05:55:08;21.50;99.90
8824;DHT22;4448;50.904;4.694;2023-06-10T05:57:34;21.50;99.90
8824;DHT22;4448;50.904;4.694;2023-06-10T06:00:00;21.50;99.90
8824;DHT22;4448;50.904;4.694;2023-06-10T06:02:25;21.50;99.90
8824;DHT22;4448;50.904;4.694;2023-06-10T06:04:51;21.60;99.90
8824;DHT22;4448;50.904;4.694;2023-06-10T06:07:17;21.60;99.90
8824;DHT22;4448;50.904;4.694;2023-06-10T06:09:42;21.70;99.90
8824;DHT22;4448;50.904;4.694;2023-06-10T06:12:08;21.70;99.90
8824;DHT22;4448;50.904;4.694;2023-06-10T06:14:37;21.70;99.90
8824;DHT22;4448;50.904;4.694;2023-06-10T06:17:05;21.70;99.90
8824;DHT22;4448;50.904;4.694;2023-06-10T06:19:31;21.70;99.90
8824;DHT22;4448;50.904;4.694;2023-06-10T06:21:57;21.80;99.90
8824;DHT22;4448;50.904;4.694;2023-06-10T06:24:22;21.80;99.90
8824;DHT22;4448;50.904;4.694;2023-06-10T06:26:48;21.90;99.90
8824;DHT22;4448;50.904;4.694;2023-06-10T06:29:13;21.90;99.90
8824;DHT22;4448;50.904;4.694;2023-06-10T06:31:39;21.90;99.90
8824;DHT22;4448;50.904;4.694;2023-06-10T06:34:05;21.90;99.90
8824;DHT22;4448;50.904;4.694;2023-06-10T06:36:30;22.00;99.90
8824;DHT22;4448;50.904;4.694;2023-06-10T06:38:56;22.00;99.90
8824;DHT22;4448;50.904;4.694;2023-06-10T06:41:22;22.00;99.90
8824;DHT22;4448;50.904;4.694;2023-06-10T06:43:48;22.00;99.90
8824;DHT22;4448;50.904;4.694;2023-06-10T06:46:17;22.10;99.90
8824;DHT22;4448;50.904;4.694;2023-06-10T06:48:42;22.10;99.90
8824;DHT22;4448;50.904;4.694;2023-06-10T06:51:08;22.20;99.90
8824;DHT22;4448;50.904;4.694;2023-06-10T06:53:34;22.10;99.90
8824;DHT22;4448;50.904;4.694;2023-06-10T06:56:01;22.20;99.90
8824;DHT22;4448;50.904;4.694;2023-06-10T06:58:27;22.20;99.90
8824;DHT22;4448;50.904;4.694;2023-06-10T07:00:53;22.30;99.90
8824;DHT22;4448;50.904;4.694;2023-06-10T07:03:18;22.30;99.90
8824;DHT22;4448;50.904;4.694;2023-06-10T07:05:44;22.30;99.90
8824;DHT22;4448;50.904;4.694;2023-06-10T07:08:10;22.40;99.90
8824;DHT22;4448;50.904;4.694;2023-06-10T07:10:37;22.40;99.90
8824;DHT22;4448;50.904;4.694;2023-06-10T07:13:03;22.40;99.90
8824;DHT22;4448;50.904;4.694;2023-06-10T07:15:28;22.40;99.90
8824;DHT22;4448;50.904;4.694;2023-06-10T07:17:54;22.40;99.90
8824;DHT22;4448;50.904;4.694;2023-06-10T07:20:20;22.50;99.90
8824;DHT22;4448;50.904;4.694;2023-06-10T07:22:46;22.50;99.90
8824;DHT22;4448;50.904;4.694;2023-06-10T07:25:12;22.50;99.90
8824;DHT22;4448;50.904;4.694;2023-06-10T07:27:37;22.60;99.90
8824;DHT22;4448;50.904;4.694;2023-06-10T07:30:06;22.60;99.90
8824;DHT22;4448;50.904;4.694;2023-06-10T07:32:33;22.60;99.90
8824;DHT22;4448;50.904;4.694;2023-06-10T07:34:59;22.70;99.90
8824;DHT22;4448;50.904;4.694;2023-06-10T07:37:25;22.70;99.90
8824;DHT22;4448;50.904;4.694;2023-06-10T07:39:50;22.80;99.90
8824;DHT22;4448;50.904;4.694;2023-06-10T07:42:16;22.80;99.90
8824;DHT22;4448;50.904;4.694;2023-06-10T07:44:42;22.80;99.90
8824;DHT22;4448;50.904;4.694;2023-06-10T07:47:07;22.90;99.90
8824;DHT22;4448;50.904;4.694;2023-06-10T07:49:33;22.90;99.90
8824;DHT22;4448;50.904;4.694;2023-06-10T07:51:59;23.00;99.90
8824;DHT22;4448;50.904;4.694;2023-06-10T07:54:24;23.00;99.90
8824;DHT22;4448;50.904;4.694;2023-06-10T07:56:50;23.00;99.90
8824;DHT22;4448;50.904;4.694;2023-06-10T07:59:18;23.10;99.90
8824;DHT22;4448;50.904;4.694;2023-06-10T08:01:43;23.10;99.90
8824;DHT22;4448;50.904;4.694;2023-06-10T08:04:09;23.20;99.90
8824;DHT22;4448;50.904;4.694;2023-06-10T08:06:35;23.20;99.90
8824;DHT22;4448;50.904;4.694;2023-06-10T08:09:02;23.20;99.90
8824;DHT22;4448;50.904;4.694;2023-06-10T08:11:28;23.30;99.90
8824;DHT22;4448;50.904;4.694;2023-06-10T08:13:55;23.30;99.90
8824;DHT22;4448;50.904;4.694;2023-06-10T08:16:21;23.30;99.90
8824;DHT22;4448;50.904;4.694;2023-06-10T08:18:46;23.40;99.90
8824;DHT22;4448;50.904;4.694;2023-06-10T08:21:12;23.40;99.90
8824;DHT22;4448;50.904;4.694;2023-06-10T08:23:37;23.40;99.90
8824;DHT22;4448;50.904;4.694;2023-06-10T08:26:03;23.50;99.90
8824;DHT22;4448;50.904;4.694;2023-06-10T08:28:29;23.50;99.90
8824;DHT22;4448;50.904;4.694;2023-06-10T08:30:54;23.60;99.90
8824;DHT22;4448;50.904;4.694;2023-06-10T08:33:20;23.60;99.90
8824;DHT22;4448;50.904;4.694;2023-06-10T08:35:46;23.60;99.90
8824;DHT22;4448;50.904;4.694;2023-06-10T08:38:11;23.70;99.90
8824;DHT22;4448;50.904;4.694;2023-06-10T08:40:37;23.70;99.90
8824;DHT22;4448;50.904;4.694;2023-06-10T08:43:07;23.70;99.90
8824;DHT22;4448;50.904;4.694;2023-06-10T08:45:35;23.80;99.90
8824;DHT22;4448;50.904;4.694;2023-06-10T08:48:03;23.80;99.90
8824;DHT22;4448;50.904;4.694;2023-06-10T08:50:37;23.90;99.90
8824;DHT22;4448;50.904;4.694;2023-06-10T08:53:05;23.90;99.90
8824;DHT22;4448;50.904;4.694;2023-06-10T08:55:38;24.00;99.90
8824;DHT22;4448;50.904;4.694;2023-06-10T08:58:07;24.00;99.90
8824;DHT22;4448;50.904;4.694;2023-06-10T09:00:34;24.10;99.90
8824;DHT22;4448;50.904;4.694;2023-06-10T09:03:00;24.10;99.90
8824;DHT22;4448;50.904;4.694;2023-06-10T09:05:29;24.20;99.90
8824;DHT22;4448;50.904;4.694;2023-06-10T09:07:56;24.30;99.90
8824;DHT22;4448;50.904;4.694;2023-06-10T09:10:23;24.40;99.90
8824;DHT22;4448;50.904;4.694;2023-06-10T09:12:48;24.40;99.90
8824;DHT22;4448;50.904;4.694;2023-06-10T09:15:14;24.60;99.90
8824;DHT22;4448;50.904;4.694;2023-06-10T09:17:42;24.60;99.90
8824;DHT22;4448;50.904;4.694;2023-06-10T09:20:08;24.70;99.90
8824;DHT22;4448;50.904;4.694;2023-06-10T09:22:34;24.80;99.90
8824;DHT22;4448;50.904;4.694;2023-06-10T09:25:05;24.90;99.90
8824;DHT22;4448;50.904;4.694;2023-06-10T09:27:31;25.00;99.90
8824;DHT22;4448;50.904;4.694;2023-06-10T09:30:00;25.10;99.90
8824;DHT22;4448;50.904;4.694;2023-06-10T09:32:26;25.20;99.90
8824;DHT22;4448;50.904;4.694;2023-06-10T09:34:52;25.30;99.90
8824;DHT22;4448;50.904;4.694;2023-06-10T09:37:22;25.50;99.90
8824;DHT22;4448;50.904;4.694;2023-06-10T09:40:05;25.60;99.90
8824;DHT22;4448;50.904;4.694;2023-06-10T09:42:35;25.70;99.90
8824;DHT22;4448;50.904;4.694;2023-06-10T09:45:04;25.80;99.90
8824;DHT22;4448;50.904;4.694;2023-06-10T09:47:30;25.90;99.90
8824;DHT22;4448;50.904;4.694;2023-06-10T09:49:56;26.00;99.90
8824;DHT22;4448;50.904;4.694;2023-06-10T09:52:29;26.10;99.90
8824;DHT22;4448;50.904;4.694;2023-06-10T09:55:00;26.30;99.90
8824;DHT22;4448;50.904;4.694;2023-06-10T09:57:31;26.40;99.90
8824;DHT22;4448;50.904;4.694;2023-06-10T09:59:58;26.50;99.90
8824;DHT22;4448;50.904;4.694;2023-06-10T10:02:23;26.70;99.90
8824;DHT22;4448;50.904;4.694;2023-06-10T10:04:49;26.80;99.90
8824;DHT22;4448;50.904;4.694;2023-06-10T10:07:15;26.90;99.90
8824;DHT22;4448;50.904;4.694;2023-06-10T10:09:42;27.00;99.90
8824;DHT22;4448;50.904;4.694;2023-06-10T10:12:13;27.10;99.90
8824;DHT22;4448;50.904;4.694;2023-06-10T10:14:40;27.30;99.90
8824;DHT22;4448;50.904;4.694;2023-06-10T10:17:10;27.40;99.90
8824;DHT22;4448;50.904;4.694;2023-06-10T10:19:46;27.50;99.90
8824;DHT22;4448;50.904;4.694;2023-06-10T10:22:19;27.60;99.90
8824;DHT22;4448;50.904;4.694;2023-06-10T10:24:49;27.80;99.90
8824;DHT22;4448;50.904;4.694;2023-06-10T10:27:36;27.80;99.90
8824;DHT22;4448;50.904;4.694;2023-06-10T10:30:06;28.00;99.90
8824;DHT22;4448;50.904;4.694;2023-06-10T10:32:42;28.10;99.90
8824;DHT22;4448;50.904;4.694;2023-06-10T10:35:13;28.20;99.90
8824;DHT22;4448;50.904;4.694;2023-06-10T10:37:40;28.30;99.90
8824;DHT22;4448;50.904;4.694;2023-06-10T10:40:07;28.50;99.90
8824;DHT22;4448;50.904;4.694;2023-06-10T10:42:34;28.60;99.90
8824;DHT22;4448;50.904;4.694;2023-06-10T10:45:01;28.70;99.90
8824;DHT22;4448;50.904;4.694;2023-06-10T10:47:28;28.80;99.90
8824;DHT22;4448;50.904;4.694;2023-06-10T10:49:57;29.00;99.90
8824;DHT22;4448;50.904;4.694;2023-06-10T10:52:25;29.10;99.90
8824;DHT22;4448;50.904;4.694;2023-06-10T10:54:53;29.20;99.90
8824;DHT22;4448;50.904;4.694;2023-06-10T10:57:23;29.30;99.90
8824;DHT22;4448;50.904;4.694;2023-06-10T11:05:01;29.60;99.90
8824;DHT22;4448;50.904;4.694;2023-06-10T11:07:30;29.80;99.90
8824;DHT22;4448;50.904;4.694;2023-06-10T11:15:12;30.20;99.90
8824;DHT22;4448;50.904;4.694;2023-06-10T11:18:05;30.30;99.90
8824;DHT22;4448;50.904;4.694;2023-06-10T11:23:09;30.60;99.90
8824;DHT22;4448;50.904;4.694;2023-06-10T11:25:39;30.60;99.90
8824;DHT22;4448;50.904;4.694;2023-06-10T11:28:27;30.70;99.90
8824;DHT22;4448;50.904;4.694;2023-06-10T11:30:57;30.80;99.90
8824;DHT22;4448;50.904;4.694;2023-06-10T11:33:24;30.90;99.90
8824;DHT22;4448;50.904;4.694;2023-06-10T11:35:50;31.00;99.90
8824;DHT22;4448;50.904;4.694;2023-06-10T11:38:16;31.10;99.90
8824;DHT22;4448;50.904;4.694;2023-06-10T11:40:48;31.20;99.90
8824;DHT22;4448;50.904;4.694;2023-06-10T11:43:15;31.20;99.90
8824;DHT22;4448;50.904;4.694;2023-06-10T11:45:41;31.20;99.90
8824;DHT22;4448;50.904;4.694;2023-06-10T11:48:09;31.30;99.90
8824;DHT22;4448;50.904;4.694;2023-06-10T11:50:36;31.50;99.90
8824;DHT22;4448;50.904;4.694;2023-06-10T11:53:02;31.60;99.90
8824;DHT22;4448;50.904;4.694;2023-06-10T11:55:49;31.70;99.90
8824;DHT22;4448;50.904;4.694;2023-06-10T11:58:22;31.80;99.90
8824;DHT22;4448;50.904;4.694;2023-06-10T12:00:55;31.90;99.90
8824;DHT22;4448;50.904;4.694;2023-06-10T12:03:24;32.00;99.90
8824;DHT22;4448;50.904;4.694;2023-06-10T12:06:02;32.10;99.90
8824;DHT22;4448;50.904;4.694;2023-06-10T12:08:28;32.20;99.90
8824;DHT22;4448;50.904;4.694;2023-06-10T12:10:54;32.30;99.90
8824;DHT22;4448;50.904;4.694;2023-06-10T12:13:20;32.50;99.90
8824;DHT22;4448;50.904;4.694;2023-06-10T12:15:47;32.60;99.90
8824;DHT22;4448;50.904;4.694;2023-06-10T12:18:23;32.70;99.90
8824;DHT22;4448;50.904;4.694;2023-06-10T12:20:50;32.80;99.90
8824;DHT22;4448;50.904;4.694;2023-06-10T12:23:17;32.90;99.90
8824;DHT22;4448;50.904;4.694;2023-06-10T12:25:54;33.00;99.90
8824;DHT22;4448;50.904;4.694;2023-06-10T12:28:22;33.10;99.90
8824;DHT22;4448;50.904;4.694;2023-06-10T12:30:48;33.10;99.90
8824;DHT22;4448;50.904;4.694;2023-06-10T12:33:20;33.10;99.90
8824;DHT22;4448;50.904;4.694;2023-06-10T12:35:51;33.10;99.90
8824;DHT22;4448;50.904;4.694;2023-06-10T12:38:25;33.00;99.90
8824;DHT22;4448;50.904;4.694;2023-06-10T12:40:54;33.00;99.90
8824;DHT22;4448;50.904;4.694;2023-06-10T12:43:26;33.00;99.90
8824;DHT22;4448;50.904;4.694;2023-06-10T12:45:51;33.00;99.90
8824;DHT22;4448;50.904;4.694;2023-06-10T12:48:23;33.00;99.90
8824;DHT22;4448;50.904;4.694;2023-06-10T12:50:54;33.10;99.90
8824;DHT22;4448;50.904;4.694;2023-06-10T12:53:20;33.10;99.90
8824;DHT22;4448;50.904;4.694;2023-06-10T12:55:47;33.10;99.90
8824;DHT22;4448;50.904;4.694;2023-06-10T12:58:13;33.20;99.90
8824;DHT22;4448;50.904;4.694;2023-06-10T13:00:39;33.20;99.90
8824;DHT22;4448;50.904;4.694;2023-06-10T13:03:05;33.20;99.90
8824;DHT22;4448;50.904;4.694;2023-06-10T13:05:32;33.10;99.90
8824;DHT22;4448;50.904;4.694;2023-06-10T13:07:58;33.00;99.90
8824;DHT22;4448;50.904;4.694;2023-06-10T13:10:24;33.00;99.90
8824;DHT22;4448;50.904;4.694;2023-06-10T13:12:50;33.00;99.90
8824;DHT22;4448;50.904;4.694;2023-06-10T13:15:16;33.00;99.90
8824;DHT22;4448;50.904;4.694;2023-06-10T13:17:43;32.90;99.90
8824;DHT22;4448;50.904;4.694;2023-06-10T13:20:11;32.90;99.90
8824;DHT22;4448;50.904;4.694;2023-06-10T13:22:36;32.90;99.90
8824;DHT22;4448;50.904;4.694;2023-06-10T13:25:03;32.90;99.90
8824;DHT22;4448;50.904;4.694;2023-06-10T13:27:29;32.90;99.90
8824;DHT22;4448;50.904;4.694;2023-06-10T13:29:55;32.90;99.90
8824;DHT22;4448;50.904;4.694;2023-06-10T13:32:20;32.90;99.90
8824;DHT22;4448;50.904;4.694;2023-06-10T13:34:46;32.80;99.90
8824;DHT22;4448;50.904;4.694;2023-06-10T13:37:12;32.80;99.90
8824;DHT22;4448;50.904;4.694;2023-06-10T13:39:38;32.80;99.90
8824;DHT22;4448;50.904;4.694;2023-06-10T13:42:05;32.80;99.90
8824;DHT22;4448;50.904;4.694;2023-06-10T13:44:31;32.80;99.90
8824;DHT22;4448;50.904;4.694;2023-06-10T13:46:59;32.80;99.90
8824;DHT22;4448;50.904;4.694;2023-06-10T13:49:25;32.80;99.90
8824;DHT22;4448;50.904;4.694;2023-06-10T13:51:50;32.80;99.90
8824;DHT22;4448;50.904;4.694;2023-06-10T13:54:16;32.90;99.90
8824;DHT22;4448;50.904;4.694;2023-06-10T13:56:41;32.70;99.90
8824;DHT22;4448;50.904;4.694;2023-06-10T13:59:07;32.70;99.90
8824;DHT22;4448;50.904;4.694;2023-06-10T14:01:33;32.60;99.90
8824;DHT22;4448;50.904;4.694;2023-06-10T14:04:00;32.50;99.90
8824;DHT22;4448;50.904;4.694;2023-06-10T14:06:26;32.40;99.90
8824;DHT22;4448;50.904;4.694;2023-06-10T14:08:52;32.30;99.90
8824;DHT22;4448;50.904;4.694;2023-06-10T14:11:20;32.20;99.90
8824;DHT22;4448;50.904;4.694;2023-06-10T14:13:46;32.20;99.90
8824;DHT22;4448;50.904;4.694;2023-06-10T14:16:12;32.10;99.90
8824;DHT22;4448;50.904;4.694;2023-06-10T14:18:38;32.20;99.90
8824;DHT22;4448;50.904;4.694;2023-06-10T14:21:03;32.10;99.90
8824;DHT22;4448;50.904;4.694;2023-06-10T14:23:29;32.10;99.90
8824;DHT22;4448;50.904;4.694;2023-06-10T14:25:55;32.10;99.90
8824;DHT22;4448;50.904;4.694;2023-06-10T14:28:20;32.00;99.90
8824;DHT22;4448;50.904;4.694;2023-06-10T14:30:46;32.00;99.90
8824;DHT22;4448;50.904;4.694;2023-06-10T14:33:12;31.90;99.90
8824;DHT22;4448;50.904;4.694;2023-06-10T14:35:37;31.80;99.90
8824;DHT22;4448;50.904;4.694;2023-06-10T14:38:03;31.70;99.90
8824;DHT22;4448;50.904;4.694;2023-06-10T14:40:29;31.70;99.90
8824;DHT22;4448;50.904;4.694;2023-06-10T14:42:55;31.60;99.90
8824;DHT22;4448;50.904;4.694;2023-06-10T14:45:21;31.60;99.90
8824;DHT22;4448;50.904;4.694;2023-06-10T14:47:47;31.60;99.90
8824;DHT22;4448;50.904;4.694;2023-06-10T14:50:14;31.60;99.90
8824;DHT22;4448;50.904;4.694;2023-06-10T14:52:40;31.50;99.90
8824;DHT22;4448;50.904;4.694;2023-06-10T14:55:06;31.50;99.90
8824;DHT22;4448;50.904;4.694;2023-06-10T14:57:31;31.40;99.90
8824;DHT22;4448;50.904;4.694;2023-06-10T15:02:23;31.30;99.90
8824;DHT22;4448;50.904;4.694;2023-06-10T15:04:49;31.20;99.90
8824;DHT22;4448;50.904;4.694;2023-06-10T15:07:14;31.20;99.90
8824;DHT22;4448;50.904;4.694;2023-06-10T15:09:41;31.20;99.90
8824;DHT22;4448;50.904;4.694;2023-06-10T15:12:07;31.10;99.90
8824;DHT22;4448;50.904;4.694;2023-06-10T15:14:34;31.10;99.90
8824;DHT22;4448;50.904;4.694;2023-06-10T15:16:59;31.10;99.90
8824;DHT22;4448;50.904;4.694;2023-06-10T15:19:26;31.00;99.90
8824;DHT22;4448;50.904;4.694;2023-06-10T15:21:52;31.10;99.90
8824;DHT22;4448;50.904;4.694;2023-06-10T15:24:18;31.00;99.90
8824;DHT22;4448;50.904;4.694;2023-06-10T15:26:43;31.00;99.90
8824;DHT22;4448;50.904;4.694;2023-06-10T15:29:09;30.90;99.90
8824;DHT22;4448;50.904;4.694;2023-06-10T15:31:35;30.90;99.90
8824;DHT22;4448;50.904;4.694;2023-06-10T15:34:00;30.80;99.90
8824;DHT22;4448;50.904;4.694;2023-06-10T15:36:26;30.70;99.90
8824;DHT22;4448;50.904;4.694;2023-06-10T15:38:53;30.60;99.90
8824;DHT22;4448;50.904;4.694;2023-06-10T15:41:19;30.60;99.90
8824;DHT22;4448;50.904;4.694;2023-06-10T15:43:45;30.60;99.90
8824;DHT22;4448;50.904;4.694;2023-06-10T15:46:12;30.60;99.90
8824;DHT22;4448;50.904;4.694;2023-06-10T15:48:38;31.00;99.90
8824;DHT22;4448;50.904;4.694;2023-06-10T15:51:03;30.50;99.90
8824;DHT22;4448;50.904;4.694;2023-06-10T15:53:29;30.50;99.90
8824;DHT22;4448;50.904;4.694;2023-06-10T15:55:55;30.40;99.90
8824;DHT22;4448;50.904;4.694;2023-06-10T15:58:20;30.40;99.90
8824;DHT22;4448;50.904;4.694;2023-06-10T16:00:46;30.30;99.90
8824;DHT22;4448;50.904;4.694;2023-06-10T16:03:12;30.30;99.90
8824;DHT22;4448;50.904;4.694;2023-06-10T16:05:37;30.20;99.90
8824;DHT22;4448;50.904;4.694;2023-06-10T16:08:03;30.10;99.90
8824;DHT22;4448;50.904;4.694;2023-06-10T16:10:29;30.10;99.90
8824;DHT22;4448;50.904;4.694;2023-06-10T16:12:54;30.10;99.90
8824;DHT22;4448;50.904;4.694;2023-06-10T16:15:20;30.10;99.90
8824;DHT22;4448;50.904;4.694;2023-06-10T16:17:46;30.10;99.90
8824;DHT22;4448;50.904;4.694;2023-06-10T16:20:12;30.00;99.90